sensor_id;sensor_type;location;lat;lon;timestamp;P1;durP1;ratioP1;P2;durP2;ratioP2
8532;SDS011;4304;53.876;10.662;2023-04-23T00:01:34;4.38;;;2.22;;
8532;SDS011;4304;53.876;10.662;2023-04-23T00:04:03;6.13;;;2.78;;
8532;SDS011;4304;53.876;10.662;2023-04-23T00:06:30;5.45;;;2.22;;
8532;SDS011;4304;53.876;10.662;2023-04-23T00:08:57;3.42;;;1.90;;
8532;SDS011;4304;53.876;10.662;2023-04-23T00:11:24;4.82;;;2.80;;
8532;SDS011;4304;53.876;10.662;2023-04-23T00:13:50;4.15;;;1.83;;
8532;SDS011;4304;53.876;10.662;2023-04-23T00:16:17;3.95;;;2.40;;
8532;SDS011;4304;53.876;10.662;2023-04-23T00:18:43;3.60;;;2.50;;
8532;SDS011;4304;53.876;10.662;2023-04-23T00:21:08;2.95;;;1.83;;
8532;SDS011;4304;53.876;10.662;2023-04-23T00:23:34;3.35;;;1.70;;
8532;SDS011;4304;53.876;10.662;2023-04-23T00:26:00;2.60;;;1.58;;
8532;SDS011;4304;53.876;10.662;2023-04-23T00:28:25;7.38;;;2.78;;
8532;SDS011;4304;53.876;10.662;2023-04-23T00:30:50;4.05;;;3.10;;
8532;SDS011;4304;53.876;10.662;2023-04-23T00:33:16;3.92;;;2.45;;
8532;SDS011;4304;53.876;10.662;2023-04-23T00:35:41;4.60;;;2.15;;
8532;SDS011;4304;53.876;10.662;2023-04-23T00:38:07;5.30;;;3.25;;
8532;SDS011;4304;53.876;10.662;2023-04-23T00:40:32;5.15;;;2.10;;
8532;SDS011;4304;53.876;10.662;2023-04-23T00:42:57;4.57;;;2.30;;
8532;SDS011;4304;53.876;10.662;2023-04-23T00:45:24;4.28;;;2.45;;
8532;SDS011;4304;53.876;10.662;2023-04-23T00:47:49;4.95;;;2.97;;
8532;SDS011;4304;53.876;10.662;2023-04-23T00:50:15;3.60;;;2.63;;
8532;SDS011;4304;53.876;10.662;2023-04-23T00:52:40;6.13;;;2.50;;
8532;SDS011;4304;53.876;10.662;2023-04-23T00:55:06;4.40;;;2.47;;
8532;SDS011;4304;53.876;10.662;2023-04-23T00:57:33;4.88;;;2.65;;
8532;SDS011;4304;53.876;10.662;2023-04-23T01:00:00;3.40;;;1.48;;
8532;SDS011;4304;53.876;10.662;2023-04-23T01:02:26;4.28;;;2.88;;
8532;SDS011;4304;53.876;10.662;2023-04-23T01:04:53;5.15;;;2.53;;
8532;SDS011;4304;53.876;10.662;2023-04-23T01:07:20;5.72;;;2.40;;
8532;SDS011;4304;53.876;10.662;2023-04-23T01:09:47;5.97;;;2.53;;
8532;SDS011;4304;53.876;10.662;2023-04-23T01:12:14;4.22;;;2.40;;
8532;SDS011;4304;53.876;10.662;2023-04-23T01:14:41;3.72;;;2.38;;
8532;SDS011;4304;53.876;10.662;2023-04-23T01:17:07;5.28;;;3.08;;
8532;SDS011;4304;53.876;10.662;2023-04-23T01:19:33;6.25;;;3.13;;
8532;SDS011;4304;53.876;10.662;2023-04-23T01:22:00;4.47;;;3.00;;
8532;SDS011;4304;53.876;10.662;2023-04-23T01:24:26;6.38;;;3.45;;
8532;SDS011;4304;53.876;10.662;2023-04-23T01:26:54;13.35;;;3.38;;
8532;SDS011;4304;53.876;10.662;2023-04-23T01:29:19;16.02;;;3.17;;
8532;SDS011;4304;53.876;10.662;2023-04-23T01:31:46;5.72;;;3.22;;
8532;SDS011;4304;53.876;10.662;2023-04-23T01:34:12;3.85;;;2.40;;
8532;SDS011;4304;53.876;10.662;2023-04-23T01:36:38;4.85;;;2.40;;
8532;SDS011;4304;53.876;10.662;2023-04-23T01:39:05;4.50;;;2.65;;
8532;SDS011;4304;53.876;10.662;2023-04-23T01:41:31;4.93;;;2.65;;
8532;SDS011;4304;53.876;10.662;2023-04-23T01:43:56;4.70;;;2.22;;
8532;SDS011;4304;53.876;10.662;2023-04-23T01:46:22;5.32;;;2.40;;
8532;SDS011;4304;53.876;10.662;2023-04-23T01:48:48;3.20;;;2.10;;
8532;SDS011;4304;53.876;10.662;2023-04-23T01:51:13;4.10;;;2.67;;
8532;SDS011;4304;53.876;10.662;2023-04-23T01:53:39;5.13;;;2.88;;
8532;SDS011;4304;53.876;10.662;2023-04-23T01:56:04;6.22;;;3.17;;
8532;SDS011;4304;53.876;10.662;2023-04-23T01:58:30;5.38;;;3.00;;
8532;SDS011;4304;53.876;10.662;2023-04-23T02:00:56;5.40;;;3.00;;
8532;SDS011;4304;53.876;10.662;2023-04-23T02:03:21;5.55;;;2.83;;
8532;SDS011;4304;53.876;10.662;2023-04-23T02:05:47;4.80;;;2.10;;
8532;SDS011;4304;53.876;10.662;2023-04-23T02:08:13;3.97;;;2.63;;
8532;SDS011;4304;53.876;10.662;2023-04-23T02:10:38;3.90;;;3.15;;
8532;SDS011;4304;53.876;10.662;2023-04-23T02:13:04;3.33;;;2.33;;
8532;SDS011;4304;53.876;10.662;2023-04-23T02:15:29;4.03;;;2.42;;
8532;SDS011;4304;53.876;10.662;2023-04-23T02:17:55;4.95;;;2.65;;
8532;SDS011;4304;53.876;10.662;2023-04-23T02:20:21;5.53;;;3.20;;
8532;SDS011;4304;53.876;10.662;2023-04-23T02:22:46;5.55;;;3.50;;
8532;SDS011;4304;53.876;10.662;2023-04-23T02:25:13;4.18;;;2.45;;
8532;SDS011;4304;53.876;10.662;2023-04-23T02:27:41;4.13;;;2.47;;
8532;SDS011;4304;53.876;10.662;2023-04-23T02:30:06;5.55;;;3.20;;
8532;SDS011;4304;53.876;10.662;2023-04-23T02:32:33;5.57;;;3.03;;
8532;SDS011;4304;53.876;10.662;2023-04-23T02:35:00;5.55;;;2.97;;
8532;SDS011;4304;53.876;10.662;2023-04-23T02:37:26;4.85;;;3.55;;
8532;SDS011;4304;53.876;10.662;2023-04-23T02:39:52;5.63;;;2.88;;
8532;SDS011;4304;53.876;10.662;2023-04-23T02:42:17;4.95;;;3.03;;
8532;SDS011;4304;53.876;10.662;2023-04-23T02:44:42;5.40;;;3.40;;
8532;SDS011;4304;53.876;10.662;2023-04-23T02:47:08;4.82;;;2.50;;
8532;SDS011;4304;53.876;10.662;2023-04-23T02:49:33;5.75;;;3.60;;
8532;SDS011;4304;53.876;10.662;2023-04-23T02:51:59;5.50;;;3.50;;
8532;SDS011;4304;53.876;10.662;2023-04-23T02:54:24;4.85;;;2.63;;
8532;SDS011;4304;53.876;10.662;2023-04-23T02:56:50;4.40;;;2.60;;
8532;SDS011;4304;53.876;10.662;2023-04-23T02:59:15;6.57;;;2.97;;
8532;SDS011;4304;53.876;10.662;2023-04-23T03:01:40;5.55;;;2.97;;
8532;SDS011;4304;53.876;10.662;2023-04-23T03:04:06;5.47;;;3.13;;
8532;SDS011;4304;53.876;10.662;2023-04-23T03:06:31;4.65;;;2.92;;
8532;SDS011;4304;53.876;10.662;2023-04-23T03:08:58;4.30;;;2.83;;
8532;SDS011;4304;53.876;10.662;2023-04-23T03:11:24;6.93;;;2.65;;
8532;SDS011;4304;53.876;10.662;2023-04-23T03:13:49;6.50;;;3.72;;
8532;SDS011;4304;53.876;10.662;2023-04-23T03:16:15;4.43;;;2.83;;
8532;SDS011;4304;53.876;10.662;2023-04-23T03:18:40;6.68;;;4.18;;
8532;SDS011;4304;53.876;10.662;2023-04-23T03:21:06;5.95;;;4.03;;
8532;SDS011;4304;53.876;10.662;2023-04-23T03:23:31;3.45;;;2.50;;
8532;SDS011;4304;53.876;10.662;2023-04-23T03:25:56;7.63;;;3.22;;
8532;SDS011;4304;53.876;10.662;2023-04-23T03:28:22;6.55;;;3.58;;
8532;SDS011;4304;53.876;10.662;2023-04-23T03:30:47;7.40;;;4.30;;
8532;SDS011;4304;53.876;10.662;2023-04-23T03:33:12;7.40;;;3.95;;
8532;SDS011;4304;53.876;10.662;2023-04-23T03:35:38;6.80;;;4.97;;
8532;SDS011;4304;53.876;10.662;2023-04-23T03:38:03;6.93;;;4.22;;
8532;SDS011;4304;53.876;10.662;2023-04-23T03:40:28;10.63;;;4.68;;
8532;SDS011;4304;53.876;10.662;2023-04-23T03:42:54;8.48;;;4.70;;
8532;SDS011;4304;53.876;10.662;2023-04-23T03:45:21;8.43;;;5.38;;
8532;SDS011;4304;53.876;10.662;2023-04-23T03:47:47;9.25;;;7.05;;
8532;SDS011;4304;53.876;10.662;2023-04-23T03:50:12;8.43;;;5.15;;
8532;SDS011;4304;53.876;10.662;2023-04-23T03:52:38;9.73;;;5.55;;
8532;SDS011;4304;53.876;10.662;2023-04-23T03:55:03;7.07;;;4.88;;
8532;SDS011;4304;53.876;10.662;2023-04-23T03:57:29;9.98;;;6.60;;
8532;SDS011;4304;53.876;10.662;2023-04-23T03:59:55;13.55;;;6.22;;
8532;SDS011;4304;53.876;10.662;2023-04-23T04:02:21;10.65;;;5.00;;
8532;SDS011;4304;53.876;10.662;2023-04-23T04:04:46;8.95;;;5.00;;
8532;SDS011;4304;53.876;10.662;2023-04-23T04:07:13;12.93;;;7.00;;
8532;SDS011;4304;53.876;10.662;2023-04-23T04:09:39;9.43;;;4.32;;
8532;SDS011;4304;53.876;10.662;2023-04-23T04:12:04;10.18;;;5.43;;
8532;SDS011;4304;53.876;10.662;2023-04-23T04:14:30;10.35;;;4.90;;
8532;SDS011;4304;53.876;10.662;2023-04-23T04:16:56;9.77;;;7.28;;
8532;SDS011;4304;53.876;10.662;2023-04-23T04:19:22;13.55;;;5.80;;
8532;SDS011;4304;53.876;10.662;2023-04-23T04:21:48;12.48;;;6.28;;
8532;SDS011;4304;53.876;10.662;2023-04-23T04:24:14;11.35;;;6.75;;
8532;SDS011;4304;53.876;10.662;2023-04-23T04:26:39;8.88;;;4.85;;
8532;SDS011;4304;53.876;10.662;2023-04-23T04:29:05;12.57;;;7.07;;
8532;SDS011;4304;53.876;10.662;2023-04-23T04:31:30;11.48;;;6.60;;
8532;SDS011;4304;53.876;10.662;2023-04-23T04:33:56;12.85;;;8.15;;
8532;SDS011;4304;53.876;10.662;2023-04-23T04:36:22;12.48;;;6.88;;
8532;SDS011;4304;53.876;10.662;2023-04-23T04:38:52;9.82;;;5.35;;
8532;SDS011;4304;53.876;10.662;2023-04-23T04:41:20;10.93;;;5.20;;
8532;SDS011;4304;53.876;10.662;2023-04-23T04:43:46;12.13;;;5.32;;
8532;SDS011;4304;53.876;10.662;2023-04-23T04:46:15;9.05;;;4.78;;
8532;SDS011;4304;53.876;10.662;2023-04-23T04:48:43;10.50;;;5.60;;
8532;SDS011;4304;53.876;10.662;2023-04-23T04:51:09;10.57;;;5.85;;
8532;SDS011;4304;53.876;10.662;2023-04-23T04:53:34;7.72;;;5.10;;
8532;SDS011;4304;53.876;10.662;2023-04-23T04:56:00;9.20;;;4.90;;
8532;SDS011;4304;53.876;10.662;2023-04-23T04:58:25;16.00;;;6.57;;
8532;SDS011;4304;53.876;10.662;2023-04-23T05:00:50;12.50;;;6.18;;
8532;SDS011;4304;53.876;10.662;2023-04-23T05:03:16;6.82;;;4.13;;
8532;SDS011;4304;53.876;10.662;2023-04-23T05:05:42;8.15;;;4.85;;
8532;SDS011;4304;53.876;10.662;2023-04-23T05:08:09;13.32;;;4.07;;
8532;SDS011;4304;53.876;10.662;2023-04-23T05:10:34;7.32;;;4.07;;
8532;SDS011;4304;53.876;10.662;2023-04-23T05:13:00;8.50;;;4.15;;
8532;SDS011;4304;53.876;10.662;2023-04-23T05:15:26;5.95;;;3.30;;
8532;SDS011;4304;53.876;10.662;2023-04-23T05:17:51;6.75;;;4.32;;
8532;SDS011;4304;53.876;10.662;2023-04-23T05:20:18;5.78;;;2.67;;
8532;SDS011;4304;53.876;10.662;2023-04-23T05:22:44;5.97;;;2.83;;
8532;SDS011;4304;53.876;10.662;2023-04-23T05:25:09;4.82;;;2.83;;
8532;SDS011;4304;53.876;10.662;2023-04-23T05:27:36;5.38;;;2.90;;
8532;SDS011;4304;53.876;10.662;2023-04-23T05:30:02;4.65;;;1.98;;
8532;SDS011;4304;53.876;10.662;2023-04-23T05:32:29;3.72;;;1.88;;
8532;SDS011;4304;53.876;10.662;2023-04-23T05:34:55;5.40;;;2.63;;
8532;SDS011;4304;53.876;10.662;2023-04-23T05:37:21;3.63;;;2.25;;
8532;SDS011;4304;53.876;10.662;2023-04-23T05:39:46;4.88;;;3.78;;
8532;SDS011;4304;53.876;10.662;2023-04-23T05:42:12;5.22;;;2.17;;
8532;SDS011;4304;53.876;10.662;2023-04-23T05:44:37;2.40;;;1.75;;
8532;SDS011;4304;53.876;10.662;2023-04-23T05:47:03;4.57;;;2.65;;
8532;SDS011;4304;53.876;10.662;2023-04-23T05:49:28;3.78;;;1.83;;
8532;SDS011;4304;53.876;10.662;2023-04-23T05:51:54;3.90;;;2.60;;
8532;SDS011;4304;53.876;10.662;2023-04-23T05:54:20;5.15;;;2.33;;
8532;SDS011;4304;53.876;10.662;2023-04-23T05:56:45;2.40;;;1.60;;
8532;SDS011;4304;53.876;10.662;2023-04-23T05:59:11;2.90;;;1.45;;
8532;SDS011;4304;53.876;10.662;2023-04-23T06:01:36;5.05;;;1.92;;
8532;SDS011;4304;53.876;10.662;2023-04-23T06:04:02;4.15;;;2.22;;
8532;SDS011;4304;53.876;10.662;2023-04-23T06:06:27;4.57;;;2.70;;
8532;SDS011;4304;53.876;10.662;2023-04-23T06:08:53;7.05;;;1.60;;
8532;SDS011;4304;53.876;10.662;2023-04-23T06:11:18;2.88;;;1.45;;
8532;SDS011;4304;53.876;10.662;2023-04-23T06:13:45;1.70;;;1.13;;
8532;SDS011;4304;53.876;10.662;2023-04-23T06:16:11;2.33;;;1.25;;
8532;SDS011;4304;53.876;10.662;2023-04-23T06:18:36;1.98;;;0.90;;
8532;SDS011;4304;53.876;10.662;2023-04-23T06:21:03;2.15;;;1.40;;
8532;SDS011;4304;53.876;10.662;2023-04-23T06:23:29;1.02;;;0.63;;
8532;SDS011;4304;53.876;10.662;2023-04-23T06:25:55;3.00;;;1.73;;
8532;SDS011;4304;53.876;10.662;2023-04-23T06:28:20;1.48;;;1.20;;
8532;SDS011;4304;53.876;10.662;2023-04-23T06:30:46;1.70;;;1.10;;
8532;SDS011;4304;53.876;10.662;2023-04-23T06:33:11;2.13;;;1.48;;
8532;SDS011;4304;53.876;10.662;2023-04-23T06:35:37;2.85;;;1.77;;
8532;SDS011;4304;53.876;10.662;2023-04-23T06:38:02;1.85;;;1.02;;
8532;SDS011;4304;53.876;10.662;2023-04-23T06:40:28;4.95;;;2.50;;
8532;SDS011;4304;53.876;10.662;2023-04-23T06:42:53;2.05;;;1.15;;
8532;SDS011;4304;53.876;10.662;2023-04-23T06:45:19;2.63;;;1.13;;
8532;SDS011;4304;53.876;10.662;2023-04-23T06:47:45;2.92;;;1.05;;
8532;SDS011;4304;53.876;10.662;2023-04-23T06:50:11;3.80;;;1.58;;
8532;SDS011;4304;53.876;10.662;2023-04-23T06:52:36;3.95;;;1.42;;
8532;SDS011;4304;53.876;10.662;2023-04-23T06:55:01;1.38;;;0.63;;
8532;SDS011;4304;53.876;10.662;2023-04-23T06:57:27;3.67;;;1.38;;
8532;SDS011;4304;53.876;10.662;2023-04-23T06:59:52;2.58;;;0.93;;
8532;SDS011;4304;53.876;10.662;2023-04-23T07:02:18;2.83;;;1.75;;
8532;SDS011;4304;53.876;10.662;2023-04-23T07:04:43;4.85;;;1.73;;
8532;SDS011;4304;53.876;10.662;2023-04-23T07:07:08;3.05;;;2.05;;
8532;SDS011;4304;53.876;10.662;2023-04-23T07:09:34;4.28;;;1.58;;
8532;SDS011;4304;53.876;10.662;2023-04-23T07:11:59;4.90;;;1.42;;
8532;SDS011;4304;53.876;10.662;2023-04-23T07:14:26;2.50;;;1.48;;
8532;SDS011;4304;53.876;10.662;2023-04-23T07:16:51;3.72;;;1.10;;
8532;SDS011;4304;53.876;10.662;2023-04-23T07:19:18;2.63;;;1.25;;
8532;SDS011;4304;53.876;10.662;2023-04-23T07:21:44;3.70;;;1.90;;
8532;SDS011;4304;53.876;10.662;2023-04-23T07:24:09;1.75;;;1.10;;
8532;SDS011;4304;53.876;10.662;2023-04-23T07:26:35;1.73;;;1.17;;
8532;SDS011;4304;53.876;10.662;2023-04-23T07:29:01;5.43;;;1.52;;
8532;SDS011;4304;53.876;10.662;2023-04-23T07:31:28;2.25;;;0.63;;
8532;SDS011;4304;53.876;10.662;2023-04-23T07:33:54;2.63;;;1.27;;
8532;SDS011;4304;53.876;10.662;2023-04-23T07:36:20;1.90;;;1.38;;
8532;SDS011;4304;53.876;10.662;2023-04-23T07:38:46;2.50;;;1.08;;
8532;SDS011;4304;53.876;10.662;2023-04-23T07:41:11;3.40;;;1.73;;
8532;SDS011;4304;53.876;10.662;2023-04-23T07:43:37;2.55;;;1.17;;
8532;SDS011;4304;53.876;10.662;2023-04-23T07:46:03;2.65;;;1.65;;
8532;SDS011;4304;53.876;10.662;2023-04-23T07:48:29;3.08;;;1.05;;
8532;SDS011;4304;53.876;10.662;2023-04-23T07:50:55;2.10;;;0.88;;
8532;SDS011;4304;53.876;10.662;2023-04-23T07:53:21;3.33;;;1.30;;
8532;SDS011;4304;53.876;10.662;2023-04-23T07:55:46;1.98;;;1.50;;
8532;SDS011;4304;53.876;10.662;2023-04-23T07:58:12;4.05;;;1.00;;
8532;SDS011;4304;53.876;10.662;2023-04-23T08:00:37;4.72;;;1.90;;
8532;SDS011;4304;53.876;10.662;2023-04-23T08:03:02;3.73;;;1.53;;
8532;SDS011;4304;53.876;10.662;2023-04-23T08:05:28;6.30;;;2.03;;
8532;SDS011;4304;53.876;10.662;2023-04-23T08:07:53;2.27;;;1.20;;
8532;SDS011;4304;53.876;10.662;2023-04-23T08:10:18;3.60;;;1.92;;
8532;SDS011;4304;53.876;10.662;2023-04-23T08:12:44;3.03;;;1.83;;
8532;SDS011;4304;53.876;10.662;2023-04-23T08:15:09;4.85;;;2.55;;
8532;SDS011;4304;53.876;10.662;2023-04-23T08:17:35;3.80;;;1.45;;
8532;SDS011;4304;53.876;10.662;2023-04-23T08:20:02;3.08;;;1.98;;
8532;SDS011;4304;53.876;10.662;2023-04-23T08:22:28;6.45;;;2.25;;
8532;SDS011;4304;53.876;10.662;2023-04-23T08:24:54;4.57;;;1.27;;
8532;SDS011;4304;53.876;10.662;2023-04-23T08:27:20;2.92;;;1.13;;
8532;SDS011;4304;53.876;10.662;2023-04-23T08:29:45;2.88;;;1.05;;
8532;SDS011;4304;53.876;10.662;2023-04-23T08:32:10;1.52;;;1.15;;
8532;SDS011;4304;53.876;10.662;2023-04-23T08:34:37;1.77;;;0.73;;
8532;SDS011;4304;53.876;10.662;2023-04-23T08:37:02;3.88;;;1.50;;
8532;SDS011;4304;53.876;10.662;2023-04-23T08:39:28;2.22;;;1.48;;
8532;SDS011;4304;53.876;10.662;2023-04-23T08:41:56;3.78;;;1.63;;
8532;SDS011;4304;53.876;10.662;2023-04-23T08:44:27;4.55;;;1.88;;
8532;SDS011;4304;53.876;10.662;2023-04-23T08:46:54;2.53;;;1.15;;
8532;SDS011;4304;53.876;10.662;2023-04-23T08:49:21;4.45;;;1.42;;
8532;SDS011;4304;53.876;10.662;2023-04-23T08:51:49;3.60;;;2.08;;
8532;SDS011;4304;53.876;10.662;2023-04-23T08:54:26;4.68;;;2.28;;
8532;SDS011;4304;53.876;10.662;2023-04-23T08:56:54;2.33;;;1.23;;
8532;SDS011;4304;53.876;10.662;2023-04-23T08:59:28;3.53;;;1.58;;
8532;SDS011;4304;53.876;10.662;2023-04-23T09:01:56;3.97;;;1.60;;
8532;SDS011;4304;53.876;10.662;2023-04-23T09:04:21;2.65;;;1.73;;
8532;SDS011;4304;53.876;10.662;2023-04-23T09:06:48;3.05;;;1.75;;
8532;SDS011;4304;53.876;10.662;2023-04-23T09:09:14;8.10;;;2.20;;
8532;SDS011;4304;53.876;10.662;2023-04-23T09:11:41;4.43;;;2.10;;
8532;SDS011;4304;53.876;10.662;2023-04-23T09:14:07;4.35;;;1.90;;
8532;SDS011;4304;53.876;10.662;2023-04-23T09:16:32;4.50;;;2.28;;
8532;SDS011;4304;53.876;10.662;2023-04-23T09:18:58;6.35;;;2.00;;
8532;SDS011;4304;53.876;10.662;2023-04-23T09:21:23;3.75;;;1.40;;
8532;SDS011;4304;53.876;10.662;2023-04-23T09:23:49;6.35;;;2.45;;
8532;SDS011;4304;53.876;10.662;2023-04-23T09:26:19;3.58;;;2.10;;
8532;SDS011;4304;53.876;10.662;2023-04-23T09:28:48;4.22;;;1.85;;
8532;SDS011;4304;53.876;10.662;2023-04-23T09:31:20;4.45;;;2.45;;
8532;SDS011;4304;53.876;10.662;2023-04-23T09:33:49;3.75;;;1.23;;
8532;SDS011;4304;53.876;10.662;2023-04-23T09:36:16;5.32;;;2.92;;
8532;SDS011;4304;53.876;10.662;2023-04-23T09:38:45;3.92;;;2.40;;
8532;SDS011;4304;53.876;10.662;2023-04-23T09:41:24;4.50;;;1.92;;
8532;SDS011;4304;53.876;10.662;2023-04-23T09:43:56;3.17;;;1.98;;
8532;SDS011;4304;53.876;10.662;2023-04-23T09:46:41;3.40;;;1.92;;
8532;SDS011;4304;53.876;10.662;2023-04-23T09:49:08;3.95;;;1.80;;
8532;SDS011;4304;53.876;10.662;2023-04-23T09:51:37;5.22;;;1.77;;
8532;SDS011;4304;53.876;10.662;2023-04-23T09:54:09;2.65;;;1.90;;
8532;SDS011;4304;53.876;10.662;2023-04-23T09:59:01;3.63;;;1.50;;
8532;SDS011;4304;53.876;10.662;2023-04-23T10:01:27;3.72;;;2.38;;
8532;SDS011;4304;53.876;10.662;2023-04-23T10:03:54;4.53;;;2.17;;
8532;SDS011;4304;53.876;10.662;2023-04-23T10:06:26;3.10;;;1.50;;
8532;SDS011;4304;53.876;10.662;2023-04-23T10:08:56;4.70;;;2.85;;
8532;SDS011;4304;53.876;10.662;2023-04-23T10:11:30;6.18;;;3.17;;
8532;SDS011;4304;53.876;10.662;2023-04-23T10:13:55;4.15;;;1.90;;
8532;SDS011;4304;53.876;10.662;2023-04-23T10:16:21;3.67;;;2.08;;
8532;SDS011;4304;53.876;10.662;2023-04-23T10:18:48;5.78;;;2.83;;
8532;SDS011;4304;53.876;10.662;2023-04-23T10:21:15;6.70;;;3.08;;
8532;SDS011;4304;53.876;10.662;2023-04-23T10:23:42;6.70;;;2.90;;
8532;SDS011;4304;53.876;10.662;2023-04-23T10:26:08;4.28;;;2.25;;
8532;SDS011;4304;53.876;10.662;2023-04-23T10:28:38;3.25;;;1.92;;
8532;SDS011;4304;53.876;10.662;2023-04-23T10:31:04;4.50;;;2.63;;
8532;SDS011;4304;53.876;10.662;2023-04-23T10:33:30;5.90;;;2.05;;
8532;SDS011;4304;53.876;10.662;2023-04-23T10:35:56;5.32;;;2.78;;
8532;SDS011;4304;53.876;10.662;2023-04-23T10:38:21;3.65;;;2.25;;
8532;SDS011;4304;53.876;10.662;2023-04-23T10:40:48;4.22;;;1.92;;
8532;SDS011;4304;53.876;10.662;2023-04-23T10:43:16;4.45;;;1.83;;
8532;SDS011;4304;53.876;10.662;2023-04-23T10:45:42;3.80;;;1.77;;
8532;SDS011;4304;53.876;10.662;2023-04-23T10:48:08;7.60;;;2.83;;
8532;SDS011;4304;53.876;10.662;2023-04-23T10:50:34;4.90;;;2.38;;
8532;SDS011;4304;53.876;10.662;2023-04-23T10:53:01;5.68;;;2.70;;
8532;SDS011;4304;53.876;10.662;2023-04-23T10:55:27;6.07;;;2.75;;
8532;SDS011;4304;53.876;10.662;2023-04-23T10:58:04;3.65;;;1.92;;
8532;SDS011;4304;53.876;10.662;2023-04-23T11:00:43;5.63;;;2.58;;
8532;SDS011;4304;53.876;10.662;2023-04-23T11:06:00;5.93;;;2.80;;
8532;SDS011;4304;53.876;10.662;2023-04-23T11:08:28;4.38;;;2.45;;
8532;SDS011;4304;53.876;10.662;2023-04-23T11:10:59;5.57;;;2.30;;
8532;SDS011;4304;53.876;10.662;2023-04-23T11:13:26;6.05;;;2.35;;
8532;SDS011;4304;53.876;10.662;2023-04-23T11:24:37;6.43;;;2.30;;
8532;SDS011;4304;53.876;10.662;2023-04-23T11:27:10;5.65;;;2.67;;
8532;SDS011;4304;53.876;10.662;2023-04-23T11:29:37;4.82;;;2.17;;
8532;SDS011;4304;53.876;10.662;2023-04-23T11:32:04;6.30;;;2.92;;
8532;SDS011;4304;53.876;10.662;2023-04-23T11:34:34;4.78;;;2.03;;
8532;SDS011;4304;53.876;10.662;2023-04-23T11:37:01;5.20;;;2.65;;
8532;SDS011;4304;53.876;10.662;2023-04-23T11:39:26;3.55;;;2.17;;
8532;SDS011;4304;53.876;10.662;2023-04-23T11:41:52;5.00;;;2.20;;
8532;SDS011;4304;53.876;10.662;2023-04-23T11:44:18;4.85;;;2.22;;
8532;SDS011;4304;53.876;10.662;2023-04-23T11:46:46;5.28;;;2.35;;
8532;SDS011;4304;53.876;10.662;2023-04-23T11:49:13;3.60;;;1.80;;
8532;SDS011;4304;53.876;10.662;2023-04-23T11:51:40;4.70;;;1.98;;
8532;SDS011;4304;53.876;10.662;2023-04-23T11:54:07;6.15;;;3.25;;
8532;SDS011;4304;53.876;10.662;2023-04-23T11:56:33;5.30;;;2.72;;
8532;SDS011;4304;53.876;10.662;2023-04-23T11:59:00;5.22;;;2.67;;
8532;SDS011;4304;53.876;10.662;2023-04-23T12:01:38;7.35;;;2.45;;
8532;SDS011;4304;53.876;10.662;2023-04-23T12:04:27;4.78;;;2.92;;
8532;SDS011;4304;53.876;10.662;2023-04-23T12:06:55;6.85;;;3.10;;
8532;SDS011;4304;53.876;10.662;2023-04-23T12:09:22;3.90;;;2.30;;
8532;SDS011;4304;53.876;10.662;2023-04-23T12:11:48;5.97;;;2.25;;
8532;SDS011;4304;53.876;10.662;2023-04-23T12:14:18;5.00;;;2.90;;
8532;SDS011;4304;53.876;10.662;2023-04-23T12:16:47;5.10;;;2.45;;
8532;SDS011;4304;53.876;10.662;2023-04-23T12:19:17;4.85;;;2.40;;
8532;SDS011;4304;53.876;10.662;2023-04-23T12:21:46;7.13;;;2.63;;
8532;SDS011;4304;53.876;10.662;2023-04-23T12:24:13;6.22;;;2.83;;
8532;SDS011;4304;53.876;10.662;2023-04-23T12:26:38;5.97;;;3.17;;
8532;SDS011;4304;53.876;10.662;2023-04-23T12:29:06;6.65;;;2.35;;
8532;SDS011;4304;53.876;10.662;2023-04-23T12:31:32;4.97;;;2.95;;
8532;SDS011;4304;53.876;10.662;2023-04-23T12:34:00;4.00;;;2.03;;
8532;SDS011;4304;53.876;10.662;2023-04-23T12:36:27;4.10;;;2.40;;
8532;SDS011;4304;53.876;10.662;2023-04-23T12:38:54;2.95;;;1.98;;
8532;SDS011;4304;53.876;10.662;2023-04-23T12:41:40;3.90;;;2.00;;
8532;SDS011;4304;53.876;10.662;2023-04-23T12:44:05;4.93;;;2.42;;
8532;SDS011;4304;53.876;10.662;2023-04-23T12:46:30;4.15;;;2.20;;
8532;SDS011;4304;53.876;10.662;2023-04-23T12:48:56;5.07;;;2.57;;
8532;SDS011;4304;53.876;10.662;2023-04-23T12:51:21;5.22;;;2.45;;
8532;SDS011;4304;53.876;10.662;2023-04-23T12:53:46;4.82;;;2.85;;
8532;SDS011;4304;53.876;10.662;2023-04-23T12:56:11;6.47;;;2.60;;
8532;SDS011;4304;53.876;10.662;2023-04-23T12:58:37;5.50;;;2.85;;
8532;SDS011;4304;53.876;10.662;2023-04-23T13:01:02;4.43;;;2.17;;
8532;SDS011;4304;53.876;10.662;2023-04-23T13:03:27;3.90;;;2.20;;
8532;SDS011;4304;53.876;10.662;2023-04-23T13:05:53;7.00;;;2.47;;
8532;SDS011;4304;53.876;10.662;2023-04-23T13:08:18;4.95;;;2.10;;
8532;SDS011;4304;53.876;10.662;2023-04-23T13:10:43;4.00;;;1.70;;
8532;SDS011;4304;53.876;10.662;2023-04-23T13:13:09;4.72;;;2.72;;
8532;SDS011;4304;53.876;10.662;2023-04-23T13:15:34;6.33;;;1.93;;
8532;SDS011;4304;53.876;10.662;2023-04-23T13:17:59;6.13;;;3.40;;
8532;SDS011;4304;53.876;10.662;2023-04-23T13:20:25;3.97;;;2.20;;
8532;SDS011;4304;53.876;10.662;2023-04-23T13:22:50;4.78;;;2.78;;
8532;SDS011;4304;53.876;10.662;2023-04-23T13:25:16;4.47;;;1.67;;
8532;SDS011;4304;53.876;10.662;2023-04-23T13:27:41;5.30;;;2.57;;
8532;SDS011;4304;53.876;10.662;2023-04-23T13:30:06;3.92;;;2.38;;
8532;SDS011;4304;53.876;10.662;2023-04-23T13:32:32;3.75;;;1.33;;
8532;SDS011;4304;53.876;10.662;2023-04-23T13:34:58;8.77;;;2.55;;
8532;SDS011;4304;53.876;10.662;2023-04-23T13:37:28;5.55;;;2.38;;
8532;SDS011;4304;53.876;10.662;2023-04-23T13:39:55;6.25;;;3.05;;
8532;SDS011;4304;53.876;10.662;2023-04-23T13:42:20;6.20;;;1.80;;
8532;SDS011;4304;53.876;10.662;2023-04-23T13:44:46;5.40;;;2.38;;
8532;SDS011;4304;53.876;10.662;2023-04-23T13:47:11;3.58;;;1.85;;
8532;SDS011;4304;53.876;10.662;2023-04-23T13:49:36;4.13;;;1.98;;
8532;SDS011;4304;53.876;10.662;2023-04-23T13:52:02;4.78;;;2.13;;
8532;SDS011;4304;53.876;10.662;2023-04-23T13:54:30;6.68;;;2.95;;
8532;SDS011;4304;53.876;10.662;2023-04-23T13:56:56;4.85;;;2.03;;
8532;SDS011;4304;53.876;10.662;2023-04-23T13:59:22;6.20;;;2.78;;
8532;SDS011;4304;53.876;10.662;2023-04-23T14:01:48;3.67;;;2.38;;
8532;SDS011;4304;53.876;10.662;2023-04-23T14:04:13;3.83;;;2.25;;
8532;SDS011;4304;53.876;10.662;2023-04-23T14:06:39;5.90;;;2.72;;
8532;SDS011;4304;53.876;10.662;2023-04-23T14:09:05;5.05;;;2.10;;
8532;SDS011;4304;53.876;10.662;2023-04-23T14:11:30;3.93;;;2.10;;
8532;SDS011;4304;53.876;10.662;2023-04-23T14:13:55;5.30;;;2.45;;
8532;SDS011;4304;53.876;10.662;2023-04-23T14:16:21;4.10;;;2.80;;
8532;SDS011;4304;53.876;10.662;2023-04-23T14:18:46;4.55;;;2.40;;
8532;SDS011;4304;53.876;10.662;2023-04-23T14:21:12;5.15;;;3.30;;
8532;SDS011;4304;53.876;10.662;2023-04-23T14:23:44;5.13;;;2.25;;
8532;SDS011;4304;53.876;10.662;2023-04-23T14:26:25;3.90;;;2.30;;
8532;SDS011;4304;53.876;10.662;2023-04-23T14:28:55;5.30;;;2.78;;
8532;SDS011;4304;53.876;10.662;2023-04-23T14:31:22;4.38;;;2.63;;
8532;SDS011;4304;53.876;10.662;2023-04-23T14:33:47;9.25;;;2.83;;
8532;SDS011;4304;53.876;10.662;2023-04-23T14:36:13;4.22;;;2.00;;
8532;SDS011;4304;53.876;10.662;2023-04-23T14:38:38;4.32;;;2.28;;
8532;SDS011;4304;53.876;10.662;2023-04-23T14:41:03;3.53;;;2.03;;
8532;SDS011;4304;53.876;10.662;2023-04-23T14:43:29;5.07;;;2.63;;
8532;SDS011;4304;53.876;10.662;2023-04-23T14:45:54;8.27;;;3.53;;
8532;SDS011;4304;53.876;10.662;2023-04-23T14:48:20;4.80;;;2.42;;
8532;SDS011;4304;53.876;10.662;2023-04-23T14:50:45;4.40;;;2.47;;
8532;SDS011;4304;53.876;10.662;2023-04-23T14:53:10;3.55;;;2.28;;
8532;SDS011;4304;53.876;10.662;2023-04-23T14:55:36;4.47;;;2.85;;
8532;SDS011;4304;53.876;10.662;2023-04-23T14:58:02;5.18;;;2.83;;
8532;SDS011;4304;53.876;10.662;2023-04-23T15:00:28;6.28;;;2.22;;
8532;SDS011;4304;53.876;10.662;2023-04-23T15:02:53;4.95;;;1.85;;
8532;SDS011;4304;53.876;10.662;2023-04-23T15:05:18;3.88;;;1.88;;
8532;SDS011;4304;53.876;10.662;2023-04-23T15:07:44;3.35;;;1.98;;
8532;SDS011;4304;53.876;10.662;2023-04-23T15:10:09;4.50;;;1.67;;